sensor_id;sensor_type;location;lat;lon;timestamp;P1;durP1;ratioP1;P2;durP2;ratioP2
8333;SDS011;4204;43.004;23.052;2023-06-10T00:02:09;6.90;;;6.20;;
8333;SDS011;4204;43.004;23.052;2023-06-10T00:04:37;9.10;;;6.03;;
8333;SDS011;4204;43.004;23.052;2023-06-10T00:07:05;9.10;;;5.93;;
8333;SDS011;4204;43.004;23.052;2023-06-10T00:09:35;6.60;;;5.90;;
8333;SDS011;4204;43.004;23.052;2023-06-10T00:12:03;6.80;;;5.60;;
8333;SDS011;4204;43.004;23.052;2023-06-10T00:14:35;5.87;;;5.27;;
8333;SDS011;4204;43.004;23.052;2023-06-10T00:17:04;7.17;;;6.07;;
8333;SDS011;4204;43.004;23.052;2023-06-10T00:19:35;7.57;;;6.37;;
8333;SDS011;4204;43.004;23.052;2023-06-10T00:22:03;6.70;;;6.00;;
8333;SDS011;4204;43.004;23.052;2023-06-10T00:24:31;7.53;;;6.73;;
8333;SDS011;4204;43.004;23.052;2023-06-10T00:26:58;9.37;;;7.13;;
8333;SDS011;4204;43.004;23.052;2023-06-10T00:29:27;9.57;;;6.80;;
8333;SDS011;4204;43.004;23.052;2023-06-10T00:31:56;6.97;;;6.13;;
8333;SDS011;4204;43.004;23.052;2023-06-10T00:34:24;7.93;;;7.13;;
8333;SDS011;4204;43.004;23.052;2023-06-10T00:36:52;7.47;;;6.57;;
8333;SDS011;4204;43.004;23.052;2023-06-10T00:39:19;9.47;;;6.60;;
8333;SDS011;4204;43.004;23.052;2023-06-10T00:41:47;9.90;;;7.37;;
8333;SDS011;4204;43.004;23.052;2023-06-10T00:44:15;8.97;;;6.67;;
8333;SDS011;4204;43.004;23.052;2023-06-10T00:46:43;11.20;;;7.17;;
8333;SDS011;4204;43.004;23.052;2023-06-10T00:49:12;9.03;;;7.00;;
8333;SDS011;4204;43.004;23.052;2023-06-10T00:51:40;7.97;;;7.17;;
8333;SDS011;4204;43.004;23.052;2023-06-10T00:54:08;7.67;;;6.97;;
8333;SDS011;4204;43.004;23.052;2023-06-10T00:56:41;8.33;;;6.63;;
8333;SDS011;4204;43.004;23.052;2023-06-10T00:59:09;8.47;;;7.43;;
8333;SDS011;4204;43.004;23.052;2023-06-10T01:01:36;9.13;;;6.70;;
8333;SDS011;4204;43.004;23.052;2023-06-10T01:04:05;8.13;;;6.20;;
8333;SDS011;4204;43.004;23.052;2023-06-10T01:06:39;7.93;;;5.80;;
8333;SDS011;4204;43.004;23.052;2023-06-10T01:09:18;7.43;;;6.00;;
8333;SDS011;4204;43.004;23.052;2023-06-10T01:11:53;6.60;;;6.00;;
8333;SDS011;4204;43.004;23.052;2023-06-10T01:14:28;7.37;;;6.27;;
8333;SDS011;4204;43.004;23.052;2023-06-10T01:16:57;7.67;;;6.33;;
8333;SDS011;4204;43.004;23.052;2023-06-10T01:19:26;7.00;;;6.30;;
8333;SDS011;4204;43.004;23.052;2023-06-10T01:21:56;8.77;;;6.47;;
8333;SDS011;4204;43.004;23.052;2023-06-10T01:24:26;7.23;;;6.40;;
8333;SDS011;4204;43.004;23.052;2023-06-10T01:26:55;6.87;;;6.17;;
8333;SDS011;4204;43.004;23.052;2023-06-10T01:29:28;7.87;;;6.73;;
8333;SDS011;4204;43.004;23.052;2023-06-10T01:32:06;8.17;;;6.50;;
8333;SDS011;4204;43.004;23.052;2023-06-10T01:34:39;6.97;;;6.27;;
8333;SDS011;4204;43.004;23.052;2023-06-10T01:37:13;6.97;;;6.23;;
8333;SDS011;4204;43.004;23.052;2023-06-10T01:39:45;7.67;;;6.23;;
8333;SDS011;4204;43.004;23.052;2023-06-10T01:42:14;7.10;;;6.40;;
8333;SDS011;4204;43.004;23.052;2023-06-10T01:44:42;6.77;;;6.07;;
8333;SDS011;4204;43.004;23.052;2023-06-10T01:47:10;7.10;;;6.40;;
8333;SDS011;4204;43.004;23.052;2023-06-10T01:49:38;8.57;;;6.33;;
8333;SDS011;4204;43.004;23.052;2023-06-10T01:52:07;8.30;;;6.27;;
8333;SDS011;4204;43.004;23.052;2023-06-10T01:54:36;7.90;;;6.50;;
8333;SDS011;4204;43.004;23.052;2023-06-10T01:57:05;6.63;;;6.03;;
8333;SDS011;4204;43.004;23.052;2023-06-10T01:59:33;6.77;;;6.17;;
8333;SDS011;4204;43.004;23.052;2023-06-10T02:02:03;9.83;;;6.33;;
8333;SDS011;4204;43.004;23.052;2023-06-10T02:04:31;6.97;;;5.83;;
8333;SDS011;4204;43.004;23.052;2023-06-10T02:07:02;7.40;;;6.30;;
8333;SDS011;4204;43.004;23.052;2023-06-10T02:09:31;7.23;;;5.83;;
8333;SDS011;4204;43.004;23.052;2023-06-10T02:12:03;6.17;;;5.57;;
8333;SDS011;4204;43.004;23.052;2023-06-10T02:14:33;6.87;;;5.70;;
8333;SDS011;4204;43.004;23.052;2023-06-10T02:17:01;6.27;;;5.77;;
8333;SDS011;4204;43.004;23.052;2023-06-10T02:19:29;6.87;;;5.70;;
8333;SDS011;4204;43.004;23.052;2023-06-10T02:21:56;5.70;;;5.20;;
8333;SDS011;4204;43.004;23.052;2023-06-10T02:24:24;7.57;;;5.70;;
8333;SDS011;4204;43.004;23.052;2023-06-10T02:26:52;9.03;;;6.03;;
8333;SDS011;4204;43.004;23.052;2023-06-10T02:29:21;6.83;;;5.73;;
8333;SDS011;4204;43.004;23.052;2023-06-10T02:31:49;6.83;;;5.80;;
8333;SDS011;4204;43.004;23.052;2023-06-10T02:34:18;8.60;;;5.60;;
8333;SDS011;4204;43.004;23.052;2023-06-10T02:36:47;6.37;;;5.33;;
8333;SDS011;4204;43.004;23.052;2023-06-10T02:39:19;9.53;;;5.80;;
8333;SDS011;4204;43.004;23.052;2023-06-10T02:41:48;7.00;;;5.50;;
8333;SDS011;4204;43.004;23.052;2023-06-10T02:44:17;7.10;;;5.57;;
8333;SDS011;4204;43.004;23.052;2023-06-10T02:46:47;5.83;;;5.23;;
8333;SDS011;4204;43.004;23.052;2023-06-10T02:49:15;6.30;;;5.70;;
8333;SDS011;4204;43.004;23.052;2023-06-10T02:51:44;7.03;;;5.23;;
8333;SDS011;4204;43.004;23.052;2023-06-10T02:54:12;8.07;;;5.80;;
8333;SDS011;4204;43.004;23.052;2023-06-10T02:56:40;17.57;;;5.80;;
8333;SDS011;4204;43.004;23.052;2023-06-10T02:59:14;5.77;;;5.23;;
8333;SDS011;4204;43.004;23.052;2023-06-10T03:01:42;6.43;;;5.50;;
8333;SDS011;4204;43.004;23.052;2023-06-10T03:04:12;6.70;;;5.57;;
8333;SDS011;4204;43.004;23.052;2023-06-10T03:06:45;6.80;;;5.60;;
8333;SDS011;4204;43.004;23.052;2023-06-10T03:09:20;5.90;;;5.30;;
8333;SDS011;4204;43.004;23.052;2023-06-10T03:11:51;5.73;;;5.10;;
8333;SDS011;4204;43.004;23.052;2023-06-10T03:14:19;7.43;;;5.33;;
8333;SDS011;4204;43.004;23.052;2023-06-10T03:16:46;6.57;;;5.60;;
8333;SDS011;4204;43.004;23.052;2023-06-10T03:19:16;6.33;;;4.97;;
8333;SDS011;4204;43.004;23.052;2023-06-10T03:21:49;5.83;;;5.27;;
8333;SDS011;4204;43.004;23.052;2023-06-10T03:24:17;6.10;;;5.50;;
8333;SDS011;4204;43.004;23.052;2023-06-10T03:26:45;8.13;;;6.10;;
8333;SDS011;4204;43.004;23.052;2023-06-10T03:29:14;6.90;;;6.10;;
8333;SDS011;4204;43.004;23.052;2023-06-10T03:31:41;6.20;;;5.60;;
8333;SDS011;4204;43.004;23.052;2023-06-10T03:34:09;6.93;;;6.23;;
8333;SDS011;4204;43.004;23.052;2023-06-10T03:36:39;6.73;;;6.03;;
8333;SDS011;4204;43.004;23.052;2023-06-10T03:39:10;8.07;;;6.43;;
8333;SDS011;4204;43.004;23.052;2023-06-10T03:41:38;6.70;;;5.87;;
8333;SDS011;4204;43.004;23.052;2023-06-10T03:44:06;6.90;;;5.90;;
8333;SDS011;4204;43.004;23.052;2023-06-10T03:46:34;10.00;;;6.57;;
8333;SDS011;4204;43.004;23.052;2023-06-10T03:49:03;7.53;;;6.10;;
8333;SDS011;4204;43.004;23.052;2023-06-10T03:51:32;7.70;;;6.47;;
8333;SDS011;4204;43.004;23.052;2023-06-10T03:54:01;6.67;;;5.97;;
8333;SDS011;4204;43.004;23.052;2023-06-10T03:56:29;6.87;;;6.17;;
8333;SDS011;4204;43.004;23.052;2023-06-10T03:58:58;6.60;;;5.90;;
8333;SDS011;4204;43.004;23.052;2023-06-10T04:01:26;7.20;;;6.40;;
8333;SDS011;4204;43.004;23.052;2023-06-10T04:03:55;8.00;;;7.20;;
8333;SDS011;4204;43.004;23.052;2023-06-10T04:06:22;8.20;;;7.20;;
8333;SDS011;4204;43.004;23.052;2023-06-10T04:08:53;8.17;;;7.10;;
8333;SDS011;4204;43.004;23.052;2023-06-10T04:11:23;9.17;;;6.80;;
8333;SDS011;4204;43.004;23.052;2023-06-10T04:13:51;7.40;;;6.50;;
8333;SDS011;4204;43.004;23.052;2023-06-10T04:16:19;7.80;;;7.00;;
8333;SDS011;4204;43.004;23.052;2023-06-10T04:18:49;8.90;;;6.73;;
8333;SDS011;4204;43.004;23.052;2023-06-10T04:21:17;7.07;;;6.37;;
8333;SDS011;4204;43.004;23.052;2023-06-10T04:23:45;7.53;;;6.77;;
8333;SDS011;4204;43.004;23.052;2023-06-10T04:26:13;8.07;;;7.13;;
8333;SDS011;4204;43.004;23.052;2023-06-10T04:28:44;7.93;;;6.43;;
8333;SDS011;4204;43.004;23.052;2023-06-10T04:31:12;9.60;;;6.33;;
8333;SDS011;4204;43.004;23.052;2023-06-10T04:33:41;6.97;;;6.37;;
8333;SDS011;4204;43.004;23.052;2023-06-10T04:36:10;7.53;;;6.77;;
8333;SDS011;4204;43.004;23.052;2023-06-10T04:38:38;7.17;;;6.17;;
8333;SDS011;4204;43.004;23.052;2023-06-10T04:41:07;7.53;;;6.73;;
8333;SDS011;4204;43.004;23.052;2023-06-10T04:43:36;6.80;;;6.10;;
8333;SDS011;4204;43.004;23.052;2023-06-10T04:46:06;8.23;;;7.13;;
8333;SDS011;4204;43.004;23.052;2023-06-10T04:48:34;7.10;;;6.40;;
8333;SDS011;4204;43.004;23.052;2023-06-10T04:51:03;7.23;;;6.50;;
8333;SDS011;4204;43.004;23.052;2023-06-10T04:53:32;7.10;;;6.40;;
8333;SDS011;4204;43.004;23.052;2023-06-10T04:56:00;7.90;;;6.83;;
8333;SDS011;4204;43.004;23.052;2023-06-10T04:58:27;10.13;;;6.90;;
8333;SDS011;4204;43.004;23.052;2023-06-10T05:00:55;7.70;;;6.90;;
8333;SDS011;4204;43.004;23.052;2023-06-10T05:03:24;7.30;;;6.47;;
8333;SDS011;4204;43.004;23.052;2023-06-10T05:05:52;8.97;;;6.27;;
8333;SDS011;4204;43.004;23.052;2023-06-10T05:08:19;6.77;;;6.17;;
8333;SDS011;4204;43.004;23.052;2023-06-10T05:10:47;8.20;;;6.70;;
8333;SDS011;4204;43.004;23.052;2023-06-10T05:13:16;6.70;;;6.10;;
8333;SDS011;4204;43.004;23.052;2023-06-10T05:15:43;7.63;;;6.83;;
8333;SDS011;4204;43.004;23.052;2023-06-10T05:18:12;6.10;;;5.50;;
8333;SDS011;4204;43.004;23.052;2023-06-10T05:20:41;6.50;;;5.90;;
8333;SDS011;4204;43.004;23.052;2023-06-10T05:23:09;6.00;;;5.13;;
8333;SDS011;4204;43.004;23.052;2023-06-10T05:25:36;6.10;;;5.50;;
8333;SDS011;4204;43.004;23.052;2023-06-10T05:28:04;5.70;;;5.13;;
8333;SDS011;4204;43.004;23.052;2023-06-10T05:30:35;5.90;;;5.13;;
8333;SDS011;4204;43.004;23.052;2023-06-10T05:33:03;5.50;;;4.73;;
8333;SDS011;4204;43.004;23.052;2023-06-10T05:35:32;6.37;;;5.50;;
8333;SDS011;4204;43.004;23.052;2023-06-10T05:38:01;6.00;;;5.50;;
8333;SDS011;4204;43.004;23.052;2023-06-10T05:40:29;5.93;;;5.33;;
8333;SDS011;4204;43.004;23.052;2023-06-10T05:42:57;6.13;;;5.57;;
8333;SDS011;4204;43.004;23.052;2023-06-10T05:45:24;5.97;;;5.47;;
8333;SDS011;4204;43.004;23.052;2023-06-10T05:47:52;5.90;;;5.30;;
8333;SDS011;4204;43.004;23.052;2023-06-10T05:50:20;6.43;;;5.80;;
8333;SDS011;4204;43.004;23.052;2023-06-10T05:52:48;8.13;;;5.47;;
8333;SDS011;4204;43.004;23.052;2023-06-10T05:55:17;7.03;;;5.60;;
8333;SDS011;4204;43.004;23.052;2023-06-10T05:57:44;6.20;;;5.60;;
8333;SDS011;4204;43.004;23.052;2023-06-10T06:00:13;6.50;;;5.87;;
8333;SDS011;4204;43.004;23.052;2023-06-10T06:02:41;6.00;;;5.40;;
8333;SDS011;4204;43.004;23.052;2023-06-10T06:05:09;6.30;;;5.63;;
8333;SDS011;4204;43.004;23.052;2023-06-10T06:07:37;6.07;;;5.43;;
8333;SDS011;4204;43.004;23.052;2023-06-10T06:10:05;6.07;;;5.00;;
8333;SDS011;4204;43.004;23.052;2023-06-10T06:12:34;5.87;;;5.07;;
8333;SDS011;4204;43.004;23.052;2023-06-10T06:15:02;5.83;;;5.17;;
8333;SDS011;4204;43.004;23.052;2023-06-10T06:17:31;6.53;;;5.63;;
8333;SDS011;4204;43.004;23.052;2023-06-10T06:19:59;8.33;;;5.47;;
8333;SDS011;4204;43.004;23.052;2023-06-10T06:22:26;6.17;;;5.57;;
8333;SDS011;4204;43.004;23.052;2023-06-10T06:24:54;6.27;;;5.67;;
8333;SDS011;4204;43.004;23.052;2023-06-10T06:27:22;5.87;;;5.17;;
8333;SDS011;4204;43.004;23.052;2023-06-10T06:29:51;6.57;;;5.37;;
8333;SDS011;4204;43.004;23.052;2023-06-10T06:32:19;7.53;;;5.43;;
8333;SDS011;4204;43.004;23.052;2023-06-10T06:34:48;7.83;;;6.03;;
8333;SDS011;4204;43.004;23.052;2023-06-10T06:37:20;8.10;;;6.17;;
8333;SDS011;4204;43.004;23.052;2023-06-10T06:39:49;6.30;;;5.70;;
8333;SDS011;4204;43.004;23.052;2023-06-10T06:42:17;6.23;;;5.63;;
8333;SDS011;4204;43.004;23.052;2023-06-10T06:45:02;6.63;;;5.53;;
8333;SDS011;4204;43.004;23.052;2023-06-10T06:47:31;6.60;;;6.00;;
8333;SDS011;4204;43.004;23.052;2023-06-10T06:49:58;8.93;;;5.63;;
8333;SDS011;4204;43.004;23.052;2023-06-10T06:52:26;6.23;;;5.63;;
8333;SDS011;4204;43.004;23.052;2023-06-10T06:54:54;6.13;;;5.50;;
8333;SDS011;4204;43.004;23.052;2023-06-10T06:57:22;6.07;;;5.27;;
8333;SDS011;4204;43.004;23.052;2023-06-10T06:59:50;6.10;;;5.50;;
8333;SDS011;4204;43.004;23.052;2023-06-10T07:02:19;7.53;;;5.60;;
8333;SDS011;4204;43.004;23.052;2023-06-10T07:04:47;6.43;;;5.83;;
8333;SDS011;4204;43.004;23.052;2023-06-10T07:07:16;7.43;;;6.67;;
8333;SDS011;4204;43.004;23.052;2023-06-10T07:09:43;6.50;;;5.03;;
8333;SDS011;4204;43.004;23.052;2023-06-10T07:12:12;8.30;;;5.10;;
8333;SDS011;4204;43.004;23.052;2023-06-10T07:14:40;5.17;;;4.67;;
8333;SDS011;4204;43.004;23.052;2023-06-10T07:17:07;5.20;;;4.70;;
8333;SDS011;4204;43.004;23.052;2023-06-10T07:19:36;4.80;;;4.30;;
8333;SDS011;4204;43.004;23.052;2023-06-10T07:22:04;6.27;;;4.23;;
8333;SDS011;4204;43.004;23.052;2023-06-10T07:24:33;4.77;;;4.37;;
8333;SDS011;4204;43.004;23.052;2023-06-10T07:27:00;4.27;;;3.97;;
8333;SDS011;4204;43.004;23.052;2023-06-10T07:29:28;5.10;;;4.60;;
8333;SDS011;4204;43.004;23.052;2023-06-10T07:31:56;4.37;;;3.93;;
8333;SDS011;4204;43.004;23.052;2023-06-10T07:34:24;4.53;;;4.07;;
8333;SDS011;4204;43.004;23.052;2023-06-10T07:36:53;7.63;;;4.20;;
8333;SDS011;4204;43.004;23.052;2023-06-10T07:39:21;5.07;;;4.33;;
8333;SDS011;4204;43.004;23.052;2023-06-10T07:41:49;4.20;;;3.80;;
8333;SDS011;4204;43.004;23.052;2023-06-10T07:44:19;19.50;;;14.40;;
8333;SDS011;4204;43.004;23.052;2023-06-10T07:46:48;6.77;;;6.07;;
8333;SDS011;4204;43.004;23.052;2023-06-10T07:49:17;4.53;;;4.13;;
8333;SDS011;4204;43.004;23.052;2023-06-10T07:51:45;4.10;;;3.63;;
8333;SDS011;4204;43.004;23.052;2023-06-10T07:54:15;4.10;;;3.70;;
8333;SDS011;4204;43.004;23.052;2023-06-10T07:56:43;4.70;;;4.30;;
8333;SDS011;4204;43.004;23.052;2023-06-10T07:59:10;5.37;;;4.13;;
8333;SDS011;4204;43.004;23.052;2023-06-10T08:01:39;4.77;;;4.37;;
8333;SDS011;4204;43.004;23.052;2023-06-10T08:04:08;6.43;;;4.60;;
8333;SDS011;4204;43.004;23.052;2023-06-10T08:06:39;5.20;;;4.63;;
8333;SDS011;4204;43.004;23.052;2023-06-10T08:09:07;4.77;;;4.37;;
8333;SDS011;4204;43.004;23.052;2023-06-10T08:11:36;4.70;;;4.10;;
8333;SDS011;4204;43.004;23.052;2023-06-10T08:14:04;5.27;;;4.77;;
8333;SDS011;4204;43.004;23.052;2023-06-10T08:16:31;4.40;;;4.00;;
8333;SDS011;4204;43.004;23.052;2023-06-10T08:18:59;5.90;;;4.70;;
8333;SDS011;4204;43.004;23.052;2023-06-10T08:21:27;5.10;;;4.60;;
8333;SDS011;4204;43.004;23.052;2023-06-10T08:23:56;5.67;;;4.00;;
8333;SDS011;4204;43.004;23.052;2023-06-10T08:26:24;4.90;;;4.13;;
8333;SDS011;4204;43.004;23.052;2023-06-10T08:28:53;7.80;;;4.57;;
8333;SDS011;4204;43.004;23.052;2023-06-10T08:31:21;5.70;;;4.43;;
8333;SDS011;4204;43.004;23.052;2023-06-10T08:33:49;4.73;;;4.33;;
8333;SDS011;4204;43.004;23.052;2023-06-10T08:36:17;4.50;;;4.10;;
8333;SDS011;4204;43.004;23.052;2023-06-10T08:38:45;4.40;;;4.00;;
8333;SDS011;4204;43.004;23.052;2023-06-10T08:41:14;5.20;;;4.27;;
8333;SDS011;4204;43.004;23.052;2023-06-10T08:43:45;4.63;;;3.97;;
8333;SDS011;4204;43.004;23.052;2023-06-10T08:46:21;4.30;;;3.90;;
8333;SDS011;4204;43.004;23.052;2023-06-10T08:48:51;5.13;;;4.20;;
8333;SDS011;4204;43.004;23.052;2023-06-10T08:51:22;4.30;;;3.90;;
8333;SDS011;4204;43.004;23.052;2023-06-10T08:53:53;5.03;;;4.57;;
8333;SDS011;4204;43.004;23.052;2023-06-10T08:56:28;4.97;;;4.17;;
8333;SDS011;4204;43.004;23.052;2023-06-10T08:58:58;5.87;;;4.20;;
8333;SDS011;4204;43.004;23.052;2023-06-10T09:01:27;4.87;;;4.00;;
8333;SDS011;4204;43.004;23.052;2023-06-10T09:03:57;4.77;;;4.37;;
8333;SDS011;4204;43.004;23.052;2023-06-10T09:06:26;4.53;;;4.10;;
8333;SDS011;4204;43.004;23.052;2023-06-10T09:08:54;4.40;;;4.00;;
8333;SDS011;4204;43.004;23.052;2023-06-10T09:11:22;4.70;;;4.17;;
8333;SDS011;4204;43.004;23.052;2023-06-10T09:13:50;5.93;;;4.30;;
8333;SDS011;4204;43.004;23.052;2023-06-10T09:16:17;5.67;;;3.97;;
8333;SDS011;4204;43.004;23.052;2023-06-10T09:18:47;4.60;;;3.93;;
8333;SDS011;4204;43.004;23.052;2023-06-10T09:21:21;4.57;;;4.17;;
8333;SDS011;4204;43.004;23.052;2023-06-10T09:23:49;4.77;;;4.37;;
8333;SDS011;4204;43.004;23.052;2023-06-10T09:26:17;5.30;;;4.77;;
8333;SDS011;4204;43.004;23.052;2023-06-10T09:28:47;4.50;;;4.10;;
8333;SDS011;4204;43.004;23.052;2023-06-10T09:31:16;6.67;;;4.40;;
8333;SDS011;4204;43.004;23.052;2023-06-10T09:33:49;8.27;;;5.37;;
8333;SDS011;4204;43.004;23.052;2023-06-10T09:36:21;6.13;;;4.60;;
8333;SDS011;4204;43.004;23.052;2023-06-10T09:38:51;6.97;;;5.50;;
8333;SDS011;4204;43.004;23.052;2023-06-10T09:41:20;5.57;;;4.70;;
8333;SDS011;4204;43.004;23.052;2023-06-10T09:43:48;5.20;;;4.70;;
8333;SDS011;4204;43.004;23.052;2023-06-10T09:46:16;6.00;;;4.70;;
8333;SDS011;4204;43.004;23.052;2023-06-10T09:48:45;4.60;;;3.83;;
8333;SDS011;4204;43.004;23.052;2023-06-10T09:51:16;4.83;;;4.33;;
8333;SDS011;4204;43.004;23.052;2023-06-10T09:53:47;4.77;;;4.30;;
8333;SDS011;4204;43.004;23.052;2023-06-10T09:56:17;4.80;;;4.30;;
8333;SDS011;4204;43.004;23.052;2023-06-10T09:58:45;4.47;;;4.07;;
8333;SDS011;4204;43.004;23.052;2023-06-10T10:01:13;5.77;;;4.60;;
8333;SDS011;4204;43.004;23.052;2023-06-10T10:03:45;4.40;;;4.00;;
8333;SDS011;4204;43.004;23.052;2023-06-10T10:06:15;5.63;;;4.50;;
8333;SDS011;4204;43.004;23.052;2023-06-10T10:08:46;4.60;;;4.20;;
8333;SDS011;4204;43.004;23.052;2023-06-10T10:11:16;4.80;;;4.40;;
8333;SDS011;4204;43.004;23.052;2023-06-10T10:13:46;5.13;;;4.10;;
8333;SDS011;4204;43.004;23.052;2023-06-10T10:16:19;6.30;;;4.37;;
8333;SDS011;4204;43.004;23.052;2023-06-10T10:18:50;4.13;;;3.70;;
8333;SDS011;4204;43.004;23.052;2023-06-10T10:21:23;5.00;;;4.23;;
8333;SDS011;4204;43.004;23.052;2023-06-10T10:23:56;4.43;;;3.90;;
8333;SDS011;4204;43.004;23.052;2023-06-10T10:26:30;5.13;;;4.23;;
8333;SDS011;4204;43.004;23.052;2023-06-10T10:29:04;7.73;;;4.13;;
8333;SDS011;4204;43.004;23.052;2023-06-10T10:31:37;4.63;;;4.13;;
8333;SDS011;4204;43.004;23.052;2023-06-10T10:34:12;5.43;;;3.90;;
8333;SDS011;4204;43.004;23.052;2023-06-10T10:36:44;4.20;;;3.80;;
8333;SDS011;4204;43.004;23.052;2023-06-10T10:39:14;4.57;;;4.10;;
8333;SDS011;4204;43.004;23.052;2023-06-10T10:41:42;4.63;;;4.10;;
8333;SDS011;4204;43.004;23.052;2023-06-10T10:44:11;4.77;;;3.90;;
8333;SDS011;4204;43.004;23.052;2023-06-10T10:46:42;4.17;;;3.73;;
8333;SDS011;4204;43.004;23.052;2023-06-10T10:49:12;7.63;;;3.80;;
8333;SDS011;4204;43.004;23.052;2023-06-10T10:51:55;4.53;;;3.90;;
8333;SDS011;4204;43.004;23.052;2023-06-10T10:54:28;5.27;;;4.13;;
8333;SDS011;4204;43.004;23.052;2023-06-10T10:57:10;4.63;;;3.97;;
8333;SDS011;4204;43.004;23.052;2023-06-10T10:59:57;4.73;;;3.73;;
8333;SDS011;4204;43.004;23.052;2023-06-10T11:02:34;4.33;;;3.93;;
8333;SDS011;4204;43.004;23.052;2023-06-10T11:05:05;4.83;;;4.20;;
8333;SDS011;4204;43.004;23.052;2023-06-10T11:07:35;5.07;;;4.30;;
8333;SDS011;4204;43.004;23.052;2023-06-10T11:10:05;4.43;;;4.03;;
8333;SDS011;4204;43.004;23.052;2023-06-10T11:12:41;5.33;;;4.20;;
8333;SDS011;4204;43.004;23.052;2023-06-10T11:15:17;4.57;;;4.13;;
8333;SDS011;4204;43.004;23.052;2023-06-10T11:23:37;6.97;;;4.03;;
8333;SDS011;4204;43.004;23.052;2023-06-10T11:26:10;4.60;;;4.20;;
8333;SDS011;4204;43.004;23.052;2023-06-10T11:29:04;4.90;;;4.00;;
8333;SDS011;4204;43.004;23.052;2023-06-10T11:31:40;6.57;;;4.27;;
8333;SDS011;4204;43.004;23.052;2023-06-10T11:34:12;4.40;;;4.00;;
8333;SDS011;4204;43.004;23.052;2023-06-10T11:36:41;9.27;;;4.50;;
8333;SDS011;4204;43.004;23.052;2023-06-10T11:39:12;6.83;;;4.50;;
8333;SDS011;4204;43.004;23.052;2023-06-10T11:41:40;5.13;;;4.53;;
8333;SDS011;4204;43.004;23.052;2023-06-10T11:44:08;5.87;;;4.37;;
8333;SDS011;4204;43.004;23.052;2023-06-10T11:46:37;5.03;;;4.40;;
8333;SDS011;4204;43.004;23.052;2023-06-10T11:49:06;7.07;;;5.53;;
8333;SDS011;4204;43.004;23.052;2023-06-10T11:51:34;4.87;;;4.43;;
8333;SDS011;4204;43.004;23.052;2023-06-10T11:54:04;5.03;;;4.37;;
8333;SDS011;4204;43.004;23.052;2023-06-10T11:56:33;6.17;;;5.13;;
8333;SDS011;4204;43.004;23.052;2023-06-10T11:59:03;6.17;;;4.80;;
8333;SDS011;4204;43.004;23.052;2023-06-10T12:01:33;6.27;;;4.60;;
8333;SDS011;4204;43.004;23.052;2023-06-10T12:04:03;7.00;;;4.93;;
8333;SDS011;4204;43.004;23.052;2023-06-10T12:06:39;6.30;;;5.00;;
8333;SDS011;4204;43.004;23.052;2023-06-10T12:09:19;7.47;;;5.23;;
8333;SDS011;4204;43.004;23.052;2023-06-10T12:11:51;8.40;;;5.07;;
8333;SDS011;4204;43.004;23.052;2023-06-10T12:17:21;5.50;;;4.87;;
8333;SDS011;4204;43.004;23.052;2023-06-10T12:19:50;7.23;;;5.43;;
8333;SDS011;4204;43.004;23.052;2023-06-10T12:22:24;7.43;;;4.73;;
8333;SDS011;4204;43.004;23.052;2023-06-10T12:24:58;5.93;;;4.73;;
8333;SDS011;4204;43.004;23.052;2023-06-10T12:27:35;4.93;;;4.10;;
8333;SDS011;4204;43.004;23.052;2023-06-10T12:30:05;4.30;;;3.90;;
8333;SDS011;4204;43.004;23.052;2023-06-10T12:32:35;6.33;;;4.10;;
8333;SDS011;4204;43.004;23.052;2023-06-10T12:35:05;5.10;;;4.13;;
8333;SDS011;4204;43.004;23.052;2023-06-10T12:37:35;7.37;;;4.13;;
8333;SDS011;4204;43.004;23.052;2023-06-10T12:40:05;5.87;;;4.17;;
8333;SDS011;4204;43.004;23.052;2023-06-10T12:42:39;4.13;;;3.70;;
8333;SDS011;4204;43.004;23.052;2023-06-10T12:45:08;7.50;;;4.70;;
8333;SDS011;4204;43.004;23.052;2023-06-10T12:47:41;5.47;;;4.47;;
8333;SDS011;4204;43.004;23.052;2023-06-10T12:50:11;14.03;;;4.63;;
8333;SDS011;4204;43.004;23.052;2023-06-10T12:52:39;4.83;;;4.33;;
8333;SDS011;4204;43.004;23.052;2023-06-10T12:55:08;5.23;;;4.20;;
8333;SDS011;4204;43.004;23.052;2023-06-10T12:57:46;5.53;;;3.90;;
8333;SDS011;4204;43.004;23.052;2023-06-10T13:00:17;5.53;;;5.00;;
8333;SDS011;4204;43.004;23.052;2023-06-10T13:02:46;6.03;;;5.20;;
8333;SDS011;4204;43.004;23.052;2023-06-10T13:05:15;10.33;;;5.23;;
8333;SDS011;4204;43.004;23.052;2023-06-10T13:07:44;5.77;;;5.00;;
8333;SDS011;4204;43.004;23.052;2023-06-10T13:10:13;5.93;;;5.27;;
8333;SDS011;4204;43.004;23.052;2023-06-10T13:12:45;7.67;;;5.30;;
8333;SDS011;4204;43.004;23.052;2023-06-10T13:15:13;5.63;;;4.90;;
8333;SDS011;4204;43.004;23.052;2023-06-10T13:17:42;5.73;;;4.97;;
8333;SDS011;4204;43.004;23.052;2023-06-10T13:20:10;6.50;;;5.10;;
8333;SDS011;4204;43.004;23.052;2023-06-10T13:22:38;5.73;;;5.13;;
8333;SDS011;4204;43.004;23.052;2023-06-10T13:25:06;5.67;;;3.90;;
8333;SDS011;4204;43.004;23.052;2023-06-10T13:27:35;6.27;;;4.80;;
8333;SDS011;4204;43.004;23.052;2023-06-10T13:30:06;5.67;;;4.97;;
8333;SDS011;4204;43.004;23.052;2023-06-10T13:32:36;4.93;;;4.40;;
8333;SDS011;4204;43.004;23.052;2023-06-10T13:35:04;8.17;;;5.00;;
8333;SDS011;4204;43.004;23.052;2023-06-10T13:37:34;5.13;;;4.63;;
8333;SDS011;4204;43.004;23.052;2023-06-10T13:40:02;5.43;;;4.67;;
8333;SDS011;4204;43.004;23.052;2023-06-10T13:42:31;5.43;;;4.93;;
8333;SDS011;4204;43.004;23.052;2023-06-10T13:44:59;5.37;;;4.70;;
8333;SDS011;4204;43.004;23.052;2023-06-10T13:47:29;6.90;;;6.20;;
8333;SDS011;4204;43.004;23.052;2023-06-10T13:49:57;4.57;;;4.17;;
8333;SDS011;4204;43.004;23.052;2023-06-10T13:52:25;5.23;;;4.73;;
8333;SDS011;4204;43.004;23.052;2023-06-10T13:54:53;5.03;;;4.53;;
8333;SDS011;4204;43.004;23.052;2023-06-10T13:57:21;6.43;;;5.30;;
8333;SDS011;4204;43.004;23.052;2023-06-10T13:59:49;5.80;;;4.60;;
8333;SDS011;4204;43.004;23.052;2023-06-10T14:02:18;6.67;;;5.07;;
8333;SDS011;4204;43.004;23.052;2023-06-10T14:04:47;5.40;;;4.90;;
8333;SDS011;4204;43.004;23.052;2023-06-10T14:07:15;5.80;;;4.63;;
8333;SDS011;4204;43.004;23.052;2023-06-10T14:09:43;5.40;;;4.67;;
8333;SDS011;4204;43.004;23.052;2023-06-10T14:12:11;5.33;;;4.60;;
8333;SDS011;4204;43.004;23.052;2023-06-10T14:14:39;5.67;;;4.83;;
8333;SDS011;4204;43.004;23.052;2023-06-10T14:17:07;4.77;;;4.27;;
8333;SDS011;4204;43.004;23.052;2023-06-10T14:19:36;5.03;;;4.53;;
8333;SDS011;4204;43.004;23.052;2023-06-10T14:22:05;5.63;;;4.80;;
8333;SDS011;4204;43.004;23.052;2023-06-10T14:24:34;5.67;;;4.50;;
8333;SDS011;4204;43.004;23.052;2023-06-10T14:27:02;5.57;;;5.03;;
8333;SDS011;4204;43.004;23.052;2023-06-10T14:29:30;4.77;;;3.80;;
8333;SDS011;4204;43.004;23.052;2023-06-10T14:31:59;4.57;;;4.17;;
8333;SDS011;4204;43.004;23.052;2023-06-10T14:34:28;6.07;;;4.40;;
8333;SDS011;4204;43.004;23.052;2023-06-10T14:36:59;5.20;;;4.27;;
8333;SDS011;4204;43.004;23.052;2023-06-10T14:39:30;4.67;;;4.27;;
8333;SDS011;4204;43.004;23.052;2023-06-10T14:41:58;4.60;;;4.20;;
8333;SDS011;4204;43.004;23.052;2023-06-10T14:44:26;6.00;;;4.90;;
8333;SDS011;4204;43.004;23.052;2023-06-10T14:46:54;6.03;;;4.80;;
8333;SDS011;4204;43.004;23.052;2023-06-10T14:49:21;5.57;;;4.70;;
8333;SDS011;4204;43.004;23.052;2023-06-10T14:51:51;5.93;;;4.50;;
8333;SDS011;4204;43.004;23.052;2023-06-10T14:54:19;5.07;;;4.27;;
8333;SDS011;4204;43.004;23.052;2023-06-10T14:56:48;4.90;;;4.40;;
8333;SDS011;4204;43.004;23.052;2023-06-10T14:59:16;6.87;;;4.23;;
8333;SDS011;4204;43.004;23.052;2023-06-10T15:01:44;5.30;;;4.77;;
8333;SDS011;4204;43.004;23.052;2023-06-10T15:04:11;5.27;;;4.63;;
8333;SDS011;4204;43.004;23.052;2023-06-10T15:06:39;5.03;;;4.53;;
8333;SDS011;4204;43.004;23.052;2023-06-10T15:09:07;5.43;;;4.80;;
8333;SDS011;4204;43.004;23.052;2023-06-10T15:11:36;5.10;;;4.33;;
8333;SDS011;4204;43.004;23.052;2023-06-10T15:14:05;5.87;;;4.67;;
8333;SDS011;4204;43.004;23.052;2023-06-10T15:16:33;6.33;;;5.13;;
8333;SDS011;4204;43.004;23.052;2023-06-10T15:19:01;5.27;;;4.77;;
8333;SDS011;4204;43.004;23.052;2023-06-10T15:21:29;5.50;;;4.90;;
8333;SDS011;4204;43.004;23.052;2023-06-10T15:23:57;6.20;;;4.93;;